sensor_id;sensor_type;location;lat;lon;timestamp;P1;durP1;ratioP1;P2;durP2;ratioP2
14396;SDS011;50653;47.810;13.022;2022-12-24T00:02:12;2.17;;;1.77;;
14396;SDS011;50653;47.810;13.022;2022-12-24T00:04:37;1.53;;;1.43;;
14396;SDS011;50653;47.810;13.022;2022-12-24T00:07:03;2.30;;;2.20;;
14396;SDS011;50653;47.810;13.022;2022-12-24T00:09:29;4.47;;;2.20;;
14396;SDS011;50653;47.810;13.022;2022-12-24T00:11:54;2.20;;;2.00;;
14396;SDS011;50653;47.810;13.022;2022-12-24T00:14:20;1.90;;;1.80;;
14396;SDS011;50653;47.810;13.022;2022-12-24T00:16:46;2.40;;;2.27;;
14396;SDS011;50653;47.810;13.022;2022-12-24T00:19:11;3.00;;;2.80;;
14396;SDS011;50653;47.810;13.022;2022-12-24T00:21:37;3.70;;;2.77;;
14396;SDS011;50653;47.810;13.022;2022-12-24T00:24:03;2.13;;;2.03;;
14396;SDS011;50653;47.810;13.022;2022-12-24T00:26:30;5.33;;;2.43;;
14396;SDS011;50653;47.810;13.022;2022-12-24T00:28:56;2.10;;;1.63;;
14396;SDS011;50653;47.810;13.022;2022-12-24T00:31:22;1.97;;;1.87;;
14396;SDS011;50653;47.810;13.022;2022-12-24T00:33:48;1.87;;;1.77;;
14396;SDS011;50653;47.810;13.022;2022-12-24T00:36:14;2.33;;;2.20;;
14396;SDS011;50653;47.810;13.022;2022-12-24T00:38:39;2.10;;;1.90;;
14396;SDS011;50653;47.810;13.022;2022-12-24T00:41:06;1.83;;;1.73;;
14396;SDS011;50653;47.810;13.022;2022-12-24T00:44:06;2.50;;;2.40;;
14396;SDS011;50653;47.810;13.022;2022-12-24T00:46:38;4.33;;;3.40;;
14396;SDS011;50653;47.810;13.022;2022-12-24T00:49:05;7.30;;;6.57;;
14396;SDS011;50653;47.810;13.022;2022-12-24T00:51:32;2.93;;;2.73;;
14396;SDS011;50653;47.810;13.022;2022-12-24T00:53:59;3.50;;;2.23;;
14396;SDS011;50653;47.810;13.022;2022-12-24T00:56:25;2.60;;;1.50;;
14396;SDS011;50653;47.810;13.022;2022-12-24T00:58:51;4.03;;;2.07;;
14396;SDS011;50653;47.810;13.022;2022-12-24T01:01:18;1.67;;;1.57;;
14396;SDS011;50653;47.810;13.022;2022-12-24T01:03:44;2.07;;;1.97;;
14396;SDS011;50653;47.810;13.022;2022-12-24T01:06:11;1.20;;;1.10;;
14396;SDS011;50653;47.810;13.022;2022-12-24T01:08:39;1.93;;;1.60;;
14396;SDS011;50653;47.810;13.022;2022-12-24T01:11:05;2.43;;;1.77;;
14396;SDS011;50653;47.810;13.022;2022-12-24T01:13:32;2.77;;;2.57;;
14396;SDS011;50653;47.810;13.022;2022-12-24T01:16:02;1.90;;;1.80;;
14396;SDS011;50653;47.810;13.022;2022-12-24T01:18:36;2.07;;;1.93;;
14396;SDS011;50653;47.810;13.022;2022-12-24T01:21:02;1.70;;;1.60;;
14396;SDS011;50653;47.810;13.022;2022-12-24T01:23:28;2.60;;;1.33;;
14396;SDS011;50653;47.810;13.022;2022-12-24T01:25:58;1.73;;;1.63;;
14396;SDS011;50653;47.810;13.022;2022-12-24T01:28:25;2.13;;;2.03;;
14396;SDS011;50653;47.810;13.022;2022-12-24T01:30:51;1.70;;;1.60;;
14396;SDS011;50653;47.810;13.022;2022-12-24T01:33:17;1.50;;;1.40;;
14396;SDS011;50653;47.810;13.022;2022-12-24T01:35:42;1.60;;;1.50;;
14396;SDS011;50653;47.810;13.022;2022-12-24T01:38:09;1.40;;;1.30;;
14396;SDS011;50653;47.810;13.022;2022-12-24T01:40:36;1.20;;;1.10;;
14396;SDS011;50653;47.810;13.022;2022-12-24T01:43:22;1.57;;;1.47;;
14396;SDS011;50653;47.810;13.022;2022-12-24T01:45:50;1.63;;;1.47;;
14396;SDS011;50653;47.810;13.022;2022-12-24T01:51:04;2.03;;;1.47;;
14396;SDS011;50653;47.810;13.022;2022-12-24T01:53:37;1.93;;;1.70;;
14396;SDS011;50653;47.810;13.022;2022-12-24T01:56:05;2.07;;;1.50;;
14396;SDS011;50653;47.810;13.022;2022-12-24T01:58:32;3.20;;;2.57;;
14396;SDS011;50653;47.810;13.022;2022-12-24T02:00:59;1.70;;;1.60;;
14396;SDS011;50653;47.810;13.022;2022-12-24T02:03:25;1.73;;;1.63;;
14396;SDS011;50653;47.810;13.022;2022-12-24T02:05:51;1.70;;;1.60;;
14396;SDS011;50653;47.810;13.022;2022-12-24T02:08:20;1.70;;;1.60;;
14396;SDS011;50653;47.810;13.022;2022-12-24T02:10:46;2.07;;;1.73;;
14396;SDS011;50653;47.810;13.022;2022-12-24T02:13:13;1.23;;;1.13;;
14396;SDS011;50653;47.810;13.022;2022-12-24T02:18:24;1.30;;;1.20;;
14396;SDS011;50653;47.810;13.022;2022-12-24T02:21:13;1.50;;;1.40;;
14396;SDS011;50653;47.810;13.022;2022-12-24T02:24:08;1.40;;;1.30;;
14396;SDS011;50653;47.810;13.022;2022-12-24T02:27:10;1.40;;;1.30;;
14396;SDS011;50653;47.810;13.022;2022-12-24T02:32:54;2.47;;;1.83;;
14396;SDS011;50653;47.810;13.022;2022-12-24T02:41:01;1.67;;;1.53;;
14396;SDS011;50653;47.810;13.022;2022-12-24T02:43:33;3.20;;;1.80;;
14396;SDS011;50653;47.810;13.022;2022-12-24T02:46:05;2.13;;;2.03;;
14396;SDS011;50653;47.810;13.022;2022-12-24T02:48:35;1.47;;;1.37;;
14396;SDS011;50653;47.810;13.022;2022-12-24T02:51:05;2.03;;;1.93;;
14396;SDS011;50653;47.810;13.022;2022-12-24T02:53:32;1.90;;;1.80;;
14396;SDS011;50653;47.810;13.022;2022-12-24T02:56:06;2.30;;;2.10;;
14396;SDS011;50653;47.810;13.022;2022-12-24T03:04:31;3.33;;;1.97;;
14396;SDS011;50653;47.810;13.022;2022-12-24T03:10:00;1.63;;;1.50;;
14396;SDS011;50653;47.810;13.022;2022-12-24T03:12:33;1.57;;;1.47;;
14396;SDS011;50653;47.810;13.022;2022-12-24T03:15:06;2.20;;;2.10;;
14396;SDS011;50653;47.810;13.022;2022-12-24T03:17:34;2.03;;;1.93;;
14396;SDS011;50653;47.810;13.022;2022-12-24T03:20:02;2.30;;;2.20;;
14396;SDS011;50653;47.810;13.022;2022-12-24T03:22:30;2.40;;;2.30;;
14396;SDS011;50653;47.810;13.022;2022-12-24T03:24:58;2.53;;;2.33;;
14396;SDS011;50653;47.810;13.022;2022-12-24T03:27:25;2.97;;;2.73;;
14396;SDS011;50653;47.810;13.022;2022-12-24T03:29:52;2.83;;;2.27;;
14396;SDS011;50653;47.810;13.022;2022-12-24T03:32:22;1.80;;;1.70;;
14396;SDS011;50653;47.810;13.022;2022-12-24T03:34:49;2.67;;;2.47;;
14396;SDS011;50653;47.810;13.022;2022-12-24T03:37:14;3.67;;;2.40;;
14396;SDS011;50653;47.810;13.022;2022-12-24T03:39:40;2.97;;;2.87;;
14396;SDS011;50653;47.810;13.022;2022-12-24T03:42:06;3.50;;;3.30;;
14396;SDS011;50653;47.810;13.022;2022-12-24T03:44:31;3.20;;;3.10;;
14396;SDS011;50653;47.810;13.022;2022-12-24T03:46:57;4.10;;;3.80;;
14396;SDS011;50653;47.810;13.022;2022-12-24T03:49:22;4.57;;;3.70;;
14396;SDS011;50653;47.810;13.022;2022-12-24T03:51:48;4.80;;;4.50;;
14396;SDS011;50653;47.810;13.022;2022-12-24T03:54:14;3.63;;;3.43;;
14396;SDS011;50653;47.810;13.022;2022-12-24T03:56:39;3.60;;;3.40;;
14396;SDS011;50653;47.810;13.022;2022-12-24T03:59:05;2.70;;;2.60;;
14396;SDS011;50653;47.810;13.022;2022-12-24T04:01:30;2.43;;;2.33;;
14396;SDS011;50653;47.810;13.022;2022-12-24T04:03:56;2.10;;;2.00;;
14396;SDS011;50653;47.810;13.022;2022-12-24T04:06:22;3.73;;;2.17;;
14396;SDS011;50653;47.810;13.022;2022-12-24T04:08:47;2.23;;;1.77;;
14396;SDS011;50653;47.810;13.022;2022-12-24T04:11:16;1.90;;;1.70;;
14396;SDS011;50653;47.810;13.022;2022-12-24T04:13:42;1.70;;;1.60;;
14396;SDS011;50653;47.810;13.022;2022-12-24T04:16:09;5.33;;;1.73;;
14396;SDS011;50653;47.810;13.022;2022-12-24T04:18:37;1.83;;;1.73;;
14396;SDS011;50653;47.810;13.022;2022-12-24T04:21:04;1.40;;;1.30;;
14396;SDS011;50653;47.810;13.022;2022-12-24T04:23:31;1.70;;;1.60;;
14396;SDS011;50653;47.810;13.022;2022-12-24T04:25:59;1.10;;;1.00;;
14396;SDS011;50653;47.810;13.022;2022-12-24T04:28:29;5.33;;;2.03;;
14396;SDS011;50653;47.810;13.022;2022-12-24T04:30:58;2.40;;;1.00;;
14396;SDS011;50653;47.810;13.022;2022-12-24T04:33:25;1.07;;;0.97;;
14396;SDS011;50653;47.810;13.022;2022-12-24T04:35:51;1.30;;;0.90;;
14396;SDS011;50653;47.810;13.022;2022-12-24T04:38:17;0.80;;;0.70;;
14396;SDS011;50653;47.810;13.022;2022-12-24T04:40:42;1.10;;;0.67;;
14396;SDS011;50653;47.810;13.022;2022-12-24T04:43:08;1.13;;;0.87;;
14396;SDS011;50653;47.810;13.022;2022-12-24T04:45:34;1.73;;;0.73;;
14396;SDS011;50653;47.810;13.022;2022-12-24T04:47:59;2.07;;;1.23;;
14396;SDS011;50653;47.810;13.022;2022-12-24T04:50:25;0.70;;;0.60;;
14396;SDS011;50653;47.810;13.022;2022-12-24T04:52:51;1.87;;;1.17;;
14396;SDS011;50653;47.810;13.022;2022-12-24T04:55:16;1.17;;;1.07;;
14396;SDS011;50653;47.810;13.022;2022-12-24T04:57:42;1.03;;;0.60;;
14396;SDS011;50653;47.810;13.022;2022-12-24T05:00:08;0.70;;;0.57;;
14396;SDS011;50653;47.810;13.022;2022-12-24T05:02:34;2.10;;;0.80;;
14396;SDS011;50653;47.810;13.022;2022-12-24T05:05:00;1.13;;;0.97;;
14396;SDS011;50653;47.810;13.022;2022-12-24T05:07:25;1.00;;;0.70;;
14396;SDS011;50653;47.810;13.022;2022-12-24T05:09:51;1.37;;;0.73;;
14396;SDS011;50653;47.810;13.022;2022-12-24T05:12:17;0.90;;;0.70;;
14396;SDS011;50653;47.810;13.022;2022-12-24T05:14:42;1.03;;;0.60;;
14396;SDS011;50653;47.810;13.022;2022-12-24T05:17:08;2.50;;;1.30;;
14396;SDS011;50653;47.810;13.022;2022-12-24T05:19:34;1.90;;;0.70;;
14396;SDS011;50653;47.810;13.022;2022-12-24T05:21:59;0.60;;;0.50;;
14396;SDS011;50653;47.810;13.022;2022-12-24T05:24:43;2.30;;;0.60;;
14396;SDS011;50653;47.810;13.022;2022-12-24T05:27:28;1.67;;;0.83;;
14396;SDS011;50653;47.810;13.022;2022-12-24T05:29:53;2.20;;;0.60;;
14396;SDS011;50653;47.810;13.022;2022-12-24T05:32:19;0.60;;;0.50;;
14396;SDS011;50653;47.810;13.022;2022-12-24T05:34:45;1.00;;;0.80;;
14396;SDS011;50653;47.810;13.022;2022-12-24T05:37:10;0.80;;;0.80;;
14396;SDS011;50653;47.810;13.022;2022-12-24T05:39:36;1.00;;;0.70;;
14396;SDS011;50653;47.810;13.022;2022-12-24T05:42:01;1.80;;;1.40;;
14396;SDS011;50653;47.810;13.022;2022-12-24T05:44:27;3.93;;;0.67;;
14396;SDS011;50653;47.810;13.022;2022-12-24T05:46:53;14.23;;;0.90;;
14396;SDS011;50653;47.810;13.022;2022-12-24T05:49:18;1.63;;;0.53;;
14396;SDS011;50653;47.810;13.022;2022-12-24T05:51:44;0.90;;;0.77;;
14396;SDS011;50653;47.810;13.022;2022-12-24T05:54:10;1.37;;;0.60;;
14396;SDS011;50653;47.810;13.022;2022-12-24T05:56:35;0.80;;;0.60;;
14396;SDS011;50653;47.810;13.022;2022-12-24T05:59:01;1.27;;;0.60;;
14396;SDS011;50653;47.810;13.022;2022-12-24T06:01:27;1.33;;;0.60;;
14396;SDS011;50653;47.810;13.022;2022-12-24T06:03:53;1.40;;;0.67;;
14396;SDS011;50653;47.810;13.022;2022-12-24T06:06:25;1.73;;;0.60;;
14396;SDS011;50653;47.810;13.022;2022-12-24T06:08:52;3.73;;;1.33;;
14396;SDS011;50653;47.810;13.022;2022-12-24T06:11:20;2.83;;;0.80;;
14396;SDS011;50653;47.810;13.022;2022-12-24T06:13:47;1.97;;;0.80;;
14396;SDS011;50653;47.810;13.022;2022-12-24T06:16:16;2.20;;;0.97;;
14396;SDS011;50653;47.810;13.022;2022-12-24T06:18:43;1.10;;;0.63;;
14396;SDS011;50653;47.810;13.022;2022-12-24T06:21:10;1.10;;;0.80;;
14396;SDS011;50653;47.810;13.022;2022-12-24T06:23:37;1.53;;;0.80;;
14396;SDS011;50653;47.810;13.022;2022-12-24T06:26:04;0.80;;;0.70;;
14396;SDS011;50653;47.810;13.022;2022-12-24T06:28:34;1.63;;;0.60;;
14396;SDS011;50653;47.810;13.022;2022-12-24T06:31:01;2.47;;;1.00;;
14396;SDS011;50653;47.810;13.022;2022-12-24T06:33:28;1.07;;;0.80;;
14396;SDS011;50653;47.810;13.022;2022-12-24T06:35:54;2.20;;;1.93;;
14396;SDS011;50653;47.810;13.022;2022-12-24T06:38:19;2.87;;;2.67;;
14396;SDS011;50653;47.810;13.022;2022-12-24T06:40:45;3.93;;;3.73;;
14396;SDS011;50653;47.810;13.022;2022-12-24T06:43:12;3.77;;;3.57;;
14396;SDS011;50653;47.810;13.022;2022-12-24T06:45:39;5.53;;;4.20;;
14396;SDS011;50653;47.810;13.022;2022-12-24T06:48:08;3.00;;;2.80;;
14396;SDS011;50653;47.810;13.022;2022-12-24T06:50:34;3.27;;;2.83;;
14396;SDS011;50653;47.810;13.022;2022-12-24T06:53:00;2.10;;;2.00;;
14396;SDS011;50653;47.810;13.022;2022-12-24T06:55:25;3.57;;;3.27;;
14396;SDS011;50653;47.810;13.022;2022-12-24T06:57:51;3.93;;;2.80;;
14396;SDS011;50653;47.810;13.022;2022-12-24T07:00:17;2.13;;;2.03;;
14396;SDS011;50653;47.810;13.022;2022-12-24T07:02:43;3.20;;;2.23;;
14396;SDS011;50653;47.810;13.022;2022-12-24T07:05:09;2.97;;;1.60;;
14396;SDS011;50653;47.810;13.022;2022-12-24T07:07:36;10.70;;;1.93;;
14396;SDS011;50653;47.810;13.022;2022-12-24T07:10:07;2.13;;;0.80;;
14396;SDS011;50653;47.810;13.022;2022-12-24T07:12:35;1.73;;;1.00;;
14396;SDS011;50653;47.810;13.022;2022-12-24T07:15:01;1.53;;;1.10;;
14396;SDS011;50653;47.810;13.022;2022-12-24T07:17:27;1.47;;;1.37;;
14396;SDS011;50653;47.810;13.022;2022-12-24T07:19:52;3.30;;;2.20;;
14396;SDS011;50653;47.810;13.022;2022-12-24T07:22:18;4.37;;;2.00;;
14396;SDS011;50653;47.810;13.022;2022-12-24T07:24:44;2.83;;;2.63;;
14396;SDS011;50653;47.810;13.022;2022-12-24T07:27:10;3.47;;;3.17;;
14396;SDS011;50653;47.810;13.022;2022-12-24T07:29:35;3.70;;;3.40;;
14396;SDS011;50653;47.810;13.022;2022-12-24T07:32:01;4.60;;;4.10;;
14396;SDS011;50653;47.810;13.022;2022-12-24T07:34:26;3.53;;;3.33;;
14396;SDS011;50653;47.810;13.022;2022-12-24T07:36:52;4.33;;;3.93;;
14396;SDS011;50653;47.810;13.022;2022-12-24T07:39:18;4.00;;;3.70;;
14396;SDS011;50653;47.810;13.022;2022-12-24T07:41:43;3.17;;;3.03;;
14396;SDS011;50653;47.810;13.022;2022-12-24T07:44:12;3.13;;;2.93;;
14396;SDS011;50653;47.810;13.022;2022-12-24T07:46:38;4.37;;;4.17;;
14396;SDS011;50653;47.810;13.022;2022-12-24T07:49:04;4.13;;;2.90;;
14396;SDS011;50653;47.810;13.022;2022-12-24T07:51:30;3.40;;;3.10;;
14396;SDS011;50653;47.810;13.022;2022-12-24T07:53:55;3.73;;;3.50;;
14396;SDS011;50653;47.810;13.022;2022-12-24T07:56:21;3.80;;;3.60;;
14396;SDS011;50653;47.810;13.022;2022-12-24T07:58:48;4.47;;;4.17;;
14396;SDS011;50653;47.810;13.022;2022-12-24T08:01:14;4.07;;;3.77;;
14396;SDS011;50653;47.810;13.022;2022-12-24T08:03:40;8.40;;;4.43;;
14396;SDS011;50653;47.810;13.022;2022-12-24T08:06:05;4.60;;;4.20;;
14396;SDS011;50653;47.810;13.022;2022-12-24T08:08:31;4.33;;;4.03;;
14396;SDS011;50653;47.810;13.022;2022-12-24T08:11:00;5.63;;;5.23;;
14396;SDS011;50653;47.810;13.022;2022-12-24T08:13:28;6.30;;;5.70;;
14396;SDS011;50653;47.810;13.022;2022-12-24T08:16:09;4.77;;;4.47;;
14396;SDS011;50653;47.810;13.022;2022-12-24T08:18:35;4.00;;;3.80;;
14396;SDS011;50653;47.810;13.022;2022-12-24T08:21:01;4.43;;;4.03;;
14396;SDS011;50653;47.810;13.022;2022-12-24T08:23:27;4.90;;;4.37;;
14396;SDS011;50653;47.810;13.022;2022-12-24T08:25:52;7.83;;;7.23;;
14396;SDS011;50653;47.810;13.022;2022-12-24T08:28:30;8.87;;;7.90;;
14396;SDS011;50653;47.810;13.022;2022-12-24T08:31:59;6.20;;;5.53;;
14396;SDS011;50653;47.810;13.022;2022-12-24T08:49:41;3.67;;;3.37;;
14396;SDS011;50653;47.810;13.022;2022-12-24T08:52:09;3.80;;;3.40;;
14396;SDS011;50653;47.810;13.022;2022-12-24T09:01:15;15.00;;;10.63;;
14396;SDS011;50653;47.810;13.022;2022-12-24T09:15:09;3.37;;;3.07;;
14396;SDS011;50653;47.810;13.022;2022-12-24T09:17:38;3.57;;;3.37;;
14396;SDS011;50653;47.810;13.022;2022-12-24T09:27:41;4.80;;;2.70;;
14396;SDS011;50653;47.810;13.022;2022-12-24T09:30:10;4.43;;;4.13;;
14396;SDS011;50653;47.810;13.022;2022-12-24T09:32:37;2.10;;;2.00;;
14396;SDS011;50653;47.810;13.022;2022-12-24T09:35:02;3.30;;;2.47;;
14396;SDS011;50653;47.810;13.022;2022-12-24T09:37:31;1.60;;;1.50;;
14396;SDS011;50653;47.810;13.022;2022-12-24T09:39:58;2.13;;;1.60;;
14396;SDS011;50653;47.810;13.022;2022-12-24T09:42:43;1.97;;;1.67;;
14396;SDS011;50653;47.810;13.022;2022-12-24T09:50:17;1.50;;;1.20;;
14396;SDS011;50653;47.810;13.022;2022-12-24T09:52:53;1.30;;;1.00;;
14396;SDS011;50653;47.810;13.022;2022-12-24T09:55:35;1.10;;;1.00;;
14396;SDS011;50653;47.810;13.022;2022-12-24T09:58:06;2.50;;;2.30;;
14396;SDS011;50653;47.810;13.022;2022-12-24T10:00:42;3.00;;;1.43;;
14396;SDS011;50653;47.810;13.022;2022-12-24T10:03:14;1.57;;;0.73;;
14396;SDS011;50653;47.810;13.022;2022-12-24T10:05:42;2.20;;;0.87;;
14396;SDS011;50653;47.810;13.022;2022-12-24T10:08:29;5.53;;;3.70;;
14396;SDS011;50653;47.810;13.022;2022-12-24T10:11:26;1.00;;;0.60;;
14396;SDS011;50653;47.810;13.022;2022-12-24T10:14:04;1.23;;;0.80;;
14396;SDS011;50653;47.810;13.022;2022-12-24T10:19:51;3.03;;;0.70;;
14396;SDS011;50653;47.810;13.022;2022-12-24T10:22:28;2.20;;;0.63;;
14396;SDS011;50653;47.810;13.022;2022-12-24T10:25:03;1.00;;;0.90;;
14396;SDS011;50653;47.810;13.022;2022-12-24T10:27:53;1.10;;;0.90;;
14396;SDS011;50653;47.810;13.022;2022-12-24T10:30:22;0.80;;;0.80;;
14396;SDS011;50653;47.810;13.022;2022-12-24T10:32:52;1.00;;;0.80;;
14396;SDS011;50653;47.810;13.022;2022-12-24T10:35:22;2.00;;;0.70;;
14396;SDS011;50653;47.810;13.022;2022-12-24T10:37:53;0.67;;;0.50;;
14396;SDS011;50653;47.810;13.022;2022-12-24T10:43:17;1.10;;;0.90;;
14396;SDS011;50653;47.810;13.022;2022-12-24T10:45:51;2.57;;;0.60;;
14396;SDS011;50653;47.810;13.022;2022-12-24T10:48:27;1.50;;;0.50;;
14396;SDS011;50653;47.810;13.022;2022-12-24T10:51:02;0.80;;;0.67;;
14396;SDS011;50653;47.810;13.022;2022-12-24T10:56:08;1.30;;;1.03;;
14396;SDS011;50653;47.810;13.022;2022-12-24T10:58:41;0.90;;;0.80;;
14396;SDS011;50653;47.810;13.022;2022-12-24T11:01:08;0.80;;;0.67;;
14396;SDS011;50653;47.810;13.022;2022-12-24T11:03:35;0.70;;;0.60;;
14396;SDS011;50653;47.810;13.022;2022-12-24T11:06:06;1.10;;;0.93;;
14396;SDS011;50653;47.810;13.022;2022-12-24T11:08:40;1.37;;;1.27;;
14396;SDS011;50653;47.810;13.022;2022-12-24T11:11:12;1.70;;;0.60;;
14396;SDS011;50653;47.810;13.022;2022-12-24T11:13:59;0.90;;;0.73;;
14396;SDS011;50653;47.810;13.022;2022-12-24T11:18:57;1.70;;;1.60;;
14396;SDS011;50653;47.810;13.022;2022-12-24T11:21:26;0.83;;;0.67;;
14396;SDS011;50653;47.810;13.022;2022-12-24T11:23:55;0.80;;;0.80;;
14396;SDS011;50653;47.810;13.022;2022-12-24T11:26:24;2.20;;;2.00;;
14396;SDS011;50653;47.810;13.022;2022-12-24T11:31:50;3.07;;;0.80;;
14396;SDS011;50653;47.810;13.022;2022-12-24T11:37:05;0.90;;;0.50;;
14396;SDS011;50653;47.810;13.022;2022-12-24T11:39:46;1.57;;;1.10;;
14396;SDS011;50653;47.810;13.022;2022-12-24T11:42:23;1.20;;;0.70;;
14396;SDS011;50653;47.810;13.022;2022-12-24T11:44:52;1.10;;;0.83;;
14396;SDS011;50653;47.810;13.022;2022-12-24T11:50:18;5.47;;;4.03;;
14396;SDS011;50653;47.810;13.022;2022-12-24T11:52:48;2.00;;;1.30;;
14396;SDS011;50653;47.810;13.022;2022-12-24T11:55:34;2.13;;;0.80;;
14396;SDS011;50653;47.810;13.022;2022-12-24T11:58:21;1.40;;;0.93;;
14396;SDS011;50653;47.810;13.022;2022-12-24T12:01:24;2.53;;;1.00;;
14396;SDS011;50653;47.810;13.022;2022-12-24T12:04:09;1.03;;;0.80;;
14396;SDS011;50653;47.810;13.022;2022-12-24T12:06:41;0.97;;;0.87;;
14396;SDS011;50653;47.810;13.022;2022-12-24T12:09:15;1.90;;;1.70;;
14396;SDS011;50653;47.810;13.022;2022-12-24T12:11:42;1.50;;;0.90;;
14396;SDS011;50653;47.810;13.022;2022-12-24T12:14:16;1.47;;;0.97;;
14396;SDS011;50653;47.810;13.022;2022-12-24T12:16:55;1.97;;;0.70;;
14396;SDS011;50653;47.810;13.022;2022-12-24T12:19:32;1.37;;;1.13;;
14396;SDS011;50653;47.810;13.022;2022-12-24T12:37:37;2.27;;;1.10;;
14396;SDS011;50653;47.810;13.022;2022-12-24T12:41:03;2.63;;;1.93;;
14396;SDS011;50653;47.810;13.022;2022-12-24T12:48:34;2.37;;;1.30;;
14396;SDS011;50653;47.810;13.022;2022-12-24T12:51:06;1.40;;;1.27;;
14396;SDS011;50653;47.810;13.022;2022-12-24T13:14:34;3.43;;;1.40;;
14396;SDS011;50653;47.810;13.022;2022-12-24T13:25:48;1.17;;;0.87;;
14396;SDS011;50653;47.810;13.022;2022-12-24T13:30:45;1.23;;;0.90;;
14396;SDS011;50653;47.810;13.022;2022-12-24T13:36:01;1.97;;;1.20;;
14396;SDS011;50653;47.810;13.022;2022-12-24T13:45:58;5.17;;;1.80;;
14396;SDS011;50653;47.810;13.022;2022-12-24T13:48:26;1.90;;;1.60;;
14396;SDS011;50653;47.810;13.022;2022-12-24T13:51:17;3.20;;;2.90;;
14396;SDS011;50653;47.810;13.022;2022-12-24T13:53:45;3.17;;;2.33;;
14396;SDS011;50653;47.810;13.022;2022-12-24T13:58:48;1.73;;;1.60;;
14396;SDS011;50653;47.810;13.022;2022-12-24T14:01:35;9.23;;;2.53;;
14396;SDS011;50653;47.810;13.022;2022-12-24T14:04:04;3.40;;;1.40;;
14396;SDS011;50653;47.810;13.022;2022-12-24T14:06:38;2.50;;;1.63;;
14396;SDS011;50653;47.810;13.022;2022-12-24T14:09:49;5.63;;;1.13;;
14396;SDS011;50653;47.810;13.022;2022-12-24T14:12:29;1.40;;;1.20;;
14396;SDS011;50653;47.810;13.022;2022-12-24T14:14:57;1.70;;;1.60;;
14396;SDS011;50653;47.810;13.022;2022-12-24T14:18:02;1.10;;;0.90;;
14396;SDS011;50653;47.810;13.022;2022-12-24T14:20:28;2.00;;;1.27;;
14396;SDS011;50653;47.810;13.022;2022-12-24T14:23:00;3.67;;;3.47;;
14396;SDS011;50653;47.810;13.022;2022-12-24T14:25:27;6.80;;;4.10;;
14396;SDS011;50653;47.810;13.022;2022-12-24T14:27:57;4.63;;;2.03;;
14396;SDS011;50653;47.810;13.022;2022-12-24T14:30:28;4.33;;;2.47;;
14396;SDS011;50653;47.810;13.022;2022-12-24T14:32:55;2.70;;;2.50;;
14396;SDS011;50653;47.810;13.022;2022-12-24T14:38:07;4.23;;;2.57;;
14396;SDS011;50653;47.810;13.022;2022-12-24T14:40:42;3.33;;;2.87;;
14396;SDS011;50653;47.810;13.022;2022-12-24T14:43:26;2.33;;;1.90;;
14396;SDS011;50653;47.810;13.022;2022-12-24T14:46:14;2.63;;;1.43;;
14396;SDS011;50653;47.810;13.022;2022-12-24T14:54:45;2.43;;;2.23;;
14396;SDS011;50653;47.810;13.022;2022-12-24T14:59:49;1.87;;;1.60;;
14396;SDS011;50653;47.810;13.022;2022-12-24T15:05:17;5.30;;;1.80;;
14396;SDS011;50653;47.810;13.022;2022-12-24T15:10:42;4.40;;;1.83;;
14396;SDS011;50653;47.810;13.022;2022-12-24T15:13:16;1.80;;;1.70;;
14396;SDS011;50653;47.810;13.022;2022-12-24T15:15:50;3.00;;;2.70;;
14396;SDS011;50653;47.810;13.022;2022-12-24T15:18:19;4.23;;;2.90;;
14396;SDS011;50653;47.810;13.022;2022-12-24T15:20:50;4.90;;;4.00;;
14396;SDS011;50653;47.810;13.022;2022-12-24T15:23:24;5.43;;;3.40;;
14396;SDS011;50653;47.810;13.022;2022-12-24T15:26:04;3.30;;;3.10;;
14396;SDS011;50653;47.810;13.022;2022-12-24T15:28:38;7.50;;;6.33;;
14396;SDS011;50653;47.810;13.022;2022-12-24T15:31:06;5.43;;;3.67;;
14396;SDS011;50653;47.810;13.022;2022-12-24T15:33:42;3.37;;;3.07;;
14396;SDS011;50653;47.810;13.022;2022-12-24T15:36:09;5.20;;;3.23;;
14396;SDS011;50653;47.810;13.022;2022-12-24T15:38:37;5.07;;;3.73;;
14396;SDS011;50653;47.810;13.022;2022-12-24T15:41:20;6.30;;;4.30;;
14396;SDS011;50653;47.810;13.022;2022-12-24T15:43:49;5.47;;;3.17;;
14396;SDS011;50653;47.810;13.022;2022-12-24T15:46:17;4.53;;;3.97;;
14396;SDS011;50653;47.810;13.022;2022-12-24T15:48:48;7.03;;;5.47;;
14396;SDS011;50653;47.810;13.022;2022-12-24T15:51:26;8.60;;;5.40;;
14396;SDS011;50653;47.810;13.022;2022-12-24T15:53:59;5.80;;;5.20;;
14396;SDS011;50653;47.810;13.022;2022-12-24T15:56:30;9.80;;;6.27;;
14396;SDS011;50653;47.810;13.022;2022-12-24T16:01:41;7.93;;;6.83;;
14396;SDS011;50653;47.810;13.022;2022-12-24T16:04:24;8.40;;;6.70;;
14396;SDS011;50653;47.810;13.022;2022-12-24T16:12:13;5.40;;;4.90;;
14396;SDS011;50653;47.810;13.022;2022-12-24T16:14:45;12.07;;;9.20;;
14396;SDS011;50653;47.810;13.022;2022-12-24T16:17:18;5.57;;;5.17;;
14396;SDS011;50653;47.810;13.022;2022-12-24T16:19:47;5.47;;;4.97;;
14396;SDS011;50653;47.810;13.022;2022-12-24T16:22:18;7.13;;;6.43;;
14396;SDS011;50653;47.810;13.022;2022-12-24T16:27:44;10.70;;;5.60;;
14396;SDS011;50653;47.810;13.022;2022-12-24T16:30:11;7.07;;;5.00;;
14396;SDS011;50653;47.810;13.022;2022-12-24T16:32:37;10.53;;;7.10;;
14396;SDS011;50653;47.810;13.022;2022-12-24T16:35:04;6.17;;;5.00;;
14396;SDS011;50653;47.810;13.022;2022-12-24T16:37:36;7.80;;;5.70;;
14396;SDS011;50653;47.810;13.022;2022-12-24T16:40:01;7.27;;;5.60;;
14396;SDS011;50653;47.810;13.022;2022-12-24T16:42:27;7.43;;;5.20;;
14396;SDS011;50653;47.810;13.022;2022-12-24T16:45:11;6.33;;;5.70;;
14396;SDS011;50653;47.810;13.022;2022-12-24T16:47:37;6.87;;;5.90;;
14396;SDS011;50653;47.810;13.022;2022-12-24T16:50:04;6.00;;;5.40;;
14396;SDS011;50653;47.810;13.022;2022-12-24T16:52:32;5.30;;;4.80;;
14396;SDS011;50653;47.810;13.022;2022-12-24T16:54:58;8.10;;;4.93;;
14396;SDS011;50653;47.810;13.022;2022-12-24T16:57:25;5.33;;;4.33;;
14396;SDS011;50653;47.810;13.022;2022-12-24T16:59:51;11.63;;;4.80;;
14396;SDS011;50653;47.810;13.022;2022-12-24T17:02:19;6.33;;;3.90;;
14396;SDS011;50653;47.810;13.022;2022-12-24T17:04:47;3.63;;;3.33;;
14396;SDS011;50653;47.810;13.022;2022-12-24T17:07:14;3.90;;;3.60;;
14396;SDS011;50653;47.810;13.022;2022-12-24T17:09:41;2.97;;;2.77;;
14396;SDS011;50653;47.810;13.022;2022-12-24T17:12:08;3.87;;;3.57;;
14396;SDS011;50653;47.810;13.022;2022-12-24T17:14:34;4.20;;;3.80;;
14396;SDS011;50653;47.810;13.022;2022-12-24T17:17:00;5.73;;;4.13;;
14396;SDS011;50653;47.810;13.022;2022-12-24T17:19:26;4.43;;;3.63;;
14396;SDS011;50653;47.810;13.022;2022-12-24T17:21:51;3.90;;;3.60;;
14396;SDS011;50653;47.810;13.022;2022-12-24T17:24:17;6.10;;;5.33;;
14396;SDS011;50653;47.810;13.022;2022-12-24T17:26:43;5.10;;;4.60;;
14396;SDS011;50653;47.810;13.022;2022-12-24T17:29:09;6.43;;;4.90;;
14396;SDS011;50653;47.810;13.022;2022-12-24T17:31:35;6.13;;;5.60;;
14396;SDS011;50653;47.810;13.022;2022-12-24T17:34:05;6.47;;;5.97;;
14396;SDS011;50653;47.810;13.022;2022-12-24T17:36:31;7.63;;;6.10;;
14396;SDS011;50653;47.810;13.022;2022-12-24T17:38:57;5.47;;;5.13;;
14396;SDS011;50653;47.810;13.022;2022-12-24T17:41:23;5.77;;;5.37;;
14396;SDS011;50653;47.810;13.022;2022-12-24T17:43:48;10.87;;;6.60;;
14396;SDS011;50653;47.810;13.022;2022-12-24T17:46:19;4.33;;;3.63;;
14396;SDS011;50653;47.810;13.022;2022-12-24T17:48:46;4.10;;;3.80;;
14396;SDS011;50653;47.810;13.022;2022-12-24T17:51:16;8.73;;;3.60;;
14396;SDS011;50653;47.810;13.022;2022-12-24T17:53:46;5.10;;;4.63;;